Time;durP1;ratioP1;P1;durP2;ratioP2;P2;SDS_P1;SDS_P2;PMS_P1;PMS_P2;Temp;Humidity;BMP_temperature;BMP_pressure;BME280_temperature;BME280_humidity;BME280_pressure;Samples;Min_cycle;Max_cycle;Signal;HPM_P1;HPM_P2
2021/08/03 00:01:42;;;;;;;15.25;3.17;;;;;;;;;;725558;192;919742;-65
2021/08/03 00:04:10;;;;;;;8.73;3.90;;;;;;;;;;726911;192;919756;-64
2021/08/03 00:06:36;;;;;;;8.03;3.43;;;;;;;;;;735088;190;919244;-65
2021/08/03 00:09:01;;;;;;;7.70;3.90;;;;;;;;;;726616;192;938929;-65
2021/08/03 00:11:27;;;;;;;8.37;3.80;;;;;;;;;;726695;192;919642;-66
2021/08/03 00:13:53;;;;;;;12.30;3.70;;;;;;;;;;730932;192;919448;-65
2021/08/03 00:16:19;;;;;;;26.50;4.10;;;;;;;;;;725604;192;919662;-65
2021/08/03 00:18:45;;;;;;;12.13;3.30;;;;;;;;;;724816;192;919022;-64
2021/08/03 00:21:12;;;;;;;6.15;2.85;;;;;;;;;;733700;192;920124;-64
2021/08/03 00:23:41;;;;;;;14.30;3.23;;;;;;;;;;728687;192;922733;-65
2021/08/03 00:26:06;;;;;;;9.50;3.63;;;;;;;;;;726662;192;919144;-66
2021/08/03 00:28:32;;;;;;;8.40;4.07;;;;;;;;;;727374;192;919512;-64
2021/08/03 00:30:58;;;;;;;9.77;3.13;;;;;;;;;;730810;191;920235;-64
2021/08/03 00:33:24;;;;;;;9.43;3.40;;;;;;;;;;727183;191;919188;-66
2021/08/03 00:35:50;;;;;;;15.93;3.90;;;;;;;;;;725861;192;918603;-64
2021/08/03 00:38:16;;;;;;;14.93;3.60;;;;;;;;;;731972;192;919346;-64
2021/08/03 00:40:41;;;;;;;18.73;3.67;;;;;;;;;;726704;190;917324;-65
2021/08/03 00:43:07;;;;;;;9.40;3.60;;;;;;;;;;725741;191;919996;-66
2021/08/03 00:45:33;;;;;;;14.03;4.23;;;;;;;;;;731632;191;919915;-65
2021/08/03 00:47:59;;;;;;;9.03;4.07;;;;;;;;;;725996;192;918102;-67
2021/08/03 00:50:25;;;;;;;10.83;3.40;;;;;;;;;;726800;191;919258;-65
2021/08/03 00:52:51;;;;;;;8.63;3.50;;;;;;;;;;727161;191;1001242;-65
2021/08/03 00:55:16;;;;;;;12.97;4.10;;;;;;;;;;727787;190;915861;-65
2021/08/03 00:57:42;;;;;;;4.30;3.10;;;;;;;;;;727054;191;917642;-64
2021/08/03 01:00:08;;;;;;;6.93;3.40;;;;;;;;;;725665;192;915326;-65
2021/08/03 01:02:34;;;;;;;6.20;3.30;;;;;;;;;;731093;192;919760;-64
2021/08/03 01:05:00;;;;;;;10.40;3.90;;;;;;;;;;725883;192;919145;-65
2021/08/03 01:07:32;;;;;;;6.40;3.43;;;;;;;;;;727568;192;921233;-65
2021/08/03 01:09:58;;;;;;;9.53;3.50;;;;;;;;;;724188;191;919388;-64
2021/08/03 01:12:24;;;;;;;10.97;3.70;;;;;;;;;;728157;192;906643;-65
2021/08/03 01:14:55;;;;;;;6.90;4.30;;;;;;;;;;725819;192;922748;-65
2021/08/03 01:17:26;;;;;;;5.82;3.00;;;;;;;;;;724866;192;919164;-65
2021/08/03 01:19:52;;;;;;;6.20;3.80;;;;;;;;;;727247;192;925052;-64
2021/08/03 01:22:24;;;;;;;11.40;3.80;;;;;;;;;;726961;193;919539;-65
2021/08/03 01:24:50;;;;;;;16.87;3.90;;;;;;;;;;726282;192;919950;-65
2021/08/03 01:27:22;;;;;;;10.93;3.85;;;;;;;;;;723848;191;1021304;-65
2021/08/03 01:29:48;;;;;;;6.70;4.20;;;;;;;;;;725831;193;919479;-69
2021/08/03 01:32:14;;;;;;;12.43;4.37;;;;;;;;;;728731;191;919546;-66
2021/08/03 01:34:40;;;;;;;13.65;4.50;;;;;;;;;;727895;192;919385;-66
2021/08/03 01:37:06;;;;;;;10.97;3.90;;;;;;;;;;727842;191;919554;-66
2021/08/03 01:39:32;;;;;;;9.50;3.70;;;;;;;;;;733999;192;919644;-66
2021/08/03 01:41:58;;;;;;;15.97;3.43;;;;;;;;;;728613;192;918941;-66
2021/08/03 01:44:23;;;;;;;12.37;4.10;;;;;;;;;;728323;192;1021529;-66
2021/08/03 01:46:49;;;;;;;8.33;3.87;;;;;;;;;;732575;192;919148;-66
2021/08/03 01:49:15;;;;;;;10.33;4.37;;;;;;;;;;725064;192;1019445;-66
2021/08/03 01:51:41;;;;;;;24.70;3.95;;;;;;;;;;724077;192;919111;-66
2021/08/03 01:54:07;;;;;;;17.07;4.00;;;;;;;;;;732365;190;919485;-66
2021/08/03 01:56:33;;;;;;;20.00;3.43;;;;;;;;;;728643;192;919375;-66
2021/08/03 01:58:58;;;;;;;54.17;5.10;;;;;;;;;;727317;190;919638;-67
2021/08/03 02:01:24;;;;;;;34.10;6.10;;;;;;;;;;726592;192;919349;-66
2021/08/03 02:03:50;;;;;;;42.40;4.60;;;;;;;;;;731030;192;918997;-66
2021/08/03 02:06:16;;;;;;;21.40;4.67;;;;;;;;;;726864;192;919159;-66
2021/08/03 02:08:42;;;;;;;6.90;2.97;;;;;;;;;;725554;193;998517;-66
2021/08/03 02:11:08;;;;;;;27.30;3.77;;;;;;;;;;730104;192;919487;-66
2021/08/03 02:13:33;;;;;;;17.00;4.47;;;;;;;;;;727361;192;919491;-66
2021/08/03 02:15:59;;;;;;;7.70;3.57;;;;;;;;;;725334;193;966098;-67
2021/08/03 02:18:25;;;;;;;5.37;3.43;;;;;;;;;;729197;192;918705;-66
2021/08/03 02:20:53;;;;;;;5.10;3.97;;;;;;;;;;726452;192;919291;-66
2021/08/03 02:23:17;;;;;;;4.80;4.30;;;;;;;;;;727780;190;919688;-66
2021/08/03 02:25:43;;;;;;;23.47;4.30;;;;;;;;;;726816;191;919225;-67
2021/08/03 02:28:08;;;;;;;5.77;3.10;;;;;;;;;;724586;191;919438;-66
2021/08/03 02:30:34;;;;;;;5.47;3.00;;;;;;;;;;725861;192;919682;-66
2021/08/03 02:33:03;;;;;;;5.53;3.33;;;;;;;;;;725703;191;919660;-66
2021/08/03 02:35:29;;;;;;;6.70;3.07;;;;;;;;;;731622;191;918577;-66
2021/08/03 02:37:55;;;;;;;12.67;3.57;;;;;;;;;;727470;191;919429;-65
2021/08/03 02:40:20;;;;;;;3.93;2.97;;;;;;;;;;724116;191;919460;-66
2021/08/03 02:42:46;;;;;;;4.87;3.07;;;;;;;;;;733400;192;849835;-66
2021/08/03 02:45:16;;;;;;;11.37;3.07;;;;;;;;;;729469;191;921743;-66
2021/08/03 02:47:49;;;;;;;7.83;2.63;;;;;;;;;;726345;192;919313;-66
2021/08/03 02:50:12;;;;;;;8.77;3.40;;;;;;;;;;726726;192;920545;-66
2021/08/03 02:52:37;;;;;;;12.77;5.10;;;;;;;;;;729513;191;920662;-66
2021/08/03 02:55:05;;;;;;;5.17;3.13;;;;;;;;;;727777;192;920077;-67
2021/08/03 02:57:30;;;;;;;6.73;3.37;;;;;;;;;;727144;192;918366;-66
2021/08/03 02:59:56;;;;;;;12.10;4.20;;;;;;;;;;732275;191;915385;-66
2021/08/03 03:02:22;;;;;;;5.70;4.60;;;;;;;;;;726139;190;925784;-65
2021/08/03 03:04:48;;;;;;;5.17;3.40;;;;;;;;;;727103;191;916307;-65
2021/08/03 03:07:14;;;;;;;4.82;4.05;;;;;;;;;;725908;192;919507;-65
2021/08/03 03:09:40;;;;;;;6.40;4.33;;;;;;;;;;731616;191;918637;-65
2021/08/03 03:12:06;;;;;;;4.50;3.53;;;;;;;;;;726412;192;918828;-65
2021/08/03 03:14:32;;;;;;;5.95;3.97;;;;;;;;;;726738;192;920272;-66
2021/08/03 03:16:58;;;;;;;80.03;10.47;;;;;;;;;;730704;191;919316;-65
2021/08/03 03:19:23;;;;;;;52.03;6.20;;;;;;;;;;725932;191;919240;-65
2021/08/03 03:21:49;;;;;;;31.93;4.43;;;;;;;;;;725638;191;919029;-66
2021/08/03 03:24:15;;;;;;;76.00;9.60;;;;;;;;;;732589;191;919652;-66
2021/08/03 03:26:41;;;;;;;8.40;3.43;;;;;;;;;;726601;191;919571;-66
2021/08/03 03:29:07;;;;;;;19.90;4.80;;;;;;;;;;726317;191;919212;-65
2021/08/03 03:31:33;;;;;;;45.40;5.33;;;;;;;;;;727168;191;919419;-66
2021/08/03 03:33:58;;;;;;;97.13;9.20;;;;;;;;;;737815;189;919127;-66
2021/08/03 03:36:25;;;;;;;43.83;8.53;;;;;;;;;;725712;192;921118;-66
2021/08/03 03:38:51;;;;;;;34.73;7.20;;;;;;;;;;727078;192;919172;-66
2021/08/03 03:41:17;;;;;;;38.40;7.93;;;;;;;;;;732197;192;918285;-66
2021/08/03 03:43:43;;;;;;;55.17;6.10;;;;;;;;;;727524;191;918744;-66
2021/08/03 03:46:09;;;;;;;70.90;9.07;;;;;;;;;;724763;189;1023376;-66
2021/08/03 03:48:34;;;;;;;47.47;6.95;;;;;;;;;;731416;191;919704;-66
2021/08/03 03:51:00;;;;;;;80.87;10.30;;;;;;;;;;723903;189;918857;-67
2021/08/03 03:53:26;;;;;;;34.70;6.77;;;;;;;;;;725689;191;1021200;-66
2021/08/03 03:55:55;;;;;;;27.20;7.07;;;;;;;;;;734371;191;899975;-66
2021/08/03 03:58:21;;;;;;;18.40;4.70;;;;;;;;;;730339;191;920694;-66
2021/08/03 04:00:46;;;;;;;27.53;4.83;;;;;;;;;;726310;191;919608;-66
2021/08/03 04:03:12;;;;;;;31.40;4.37;;;;;;;;;;727541;191;926384;-66
2021/08/03 04:05:38;;;;;;;9.00;4.40;;;;;;;;;;733426;191;919704;-66
2021/08/03 04:08:04;;;;;;;6.40;4.37;;;;;;;;;;724798;191;921143;-66
2021/08/03 04:10:30;;;;;;;5.30;3.80;;;;;;;;;;730654;190;626134;-66
2021/08/03 04:12:56;;;;;;;11.40;4.53;;;;;;;;;;732532;191;918562;-66
2021/08/03 04:15:22;;;;;;;23.10;5.40;;;;;;;;;;725669;191;919306;-67
2021/08/03 04:17:48;;;;;;;20.90;7.10;;;;;;;;;;727996;191;918720;-67
2021/08/03 04:20:14;;;;;;;30.83;6.12;;;;;;;;;;728465;192;919010;-66
2021/08/03 04:22:40;;;;;;;36.03;7.90;;;;;;;;;;727120;190;919522;-66
2021/08/03 04:25:06;;;;;;;39.93;6.47;;;;;;;;;;727803;191;918496;-66
2021/08/03 04:27:32;;;;;;;17.73;6.47;;;;;;;;;;725338;190;918347;-66
2021/08/03 04:29:58;;;;;;;16.50;6.27;;;;;;;;;;729774;192;919616;-67
2021/08/03 04:32:24;;;;;;;22.23;5.87;;;;;;;;;;725568;191;920322;-67
2021/08/03 04:34:50;;;;;;;13.20;7.78;;;;;;;;;;727311;191;919255;-68
2021/08/03 04:37:16;;;;;;;23.60;6.40;;;;;;;;;;732072;191;921212;-66
2021/08/03 04:39:41;;;;;;;21.02;7.12;;;;;;;;;;725844;191;919120;-67
2021/08/03 04:42:07;;;;;;;12.23;5.80;;;;;;;;;;725793;191;930430;-68
2021/08/03 04:44:33;;;;;;;12.50;7.40;;;;;;;;;;729831;192;917524;-67
2021/08/03 04:46:59;;;;;;;13.97;6.80;;;;;;;;;;726026;191;919328;-66
2021/08/03 04:49:25;;;;;;;10.87;7.63;;;;;;;;;;726115;191;919670;-66
2021/08/03 04:51:51;;;;;;;9.73;7.90;;;;;;;;;;728533;191;911435;-66
2021/08/03 04:54:16;;;;;;;13.20;8.77;;;;;;;;;;732243;192;914991;-66
2021/08/03 04:56:42;;;;;;;14.77;8.13;;;;;;;;;;726963;190;919636;-66
2021/08/03 04:59:08;;;;;;;65.60;10.38;;;;;;;;;;726042;191;919266;-67
2021/08/03 05:01:34;;;;;;;16.73;9.07;;;;;;;;;;729868;193;919484;-67
2021/08/03 05:04:00;;;;;;;20.63;10.07;;;;;;;;;;725285;192;919558;-67
2021/08/03 05:06:26;;;;;;;17.03;9.40;;;;;;;;;;728704;191;918971;-66
2021/08/03 05:08:52;;;;;;;14.43;9.80;;;;;;;;;;732979;191;918008;-66
2021/08/03 05:11:18;;;;;;;16.63;11.23;;;;;;;;;;726938;192;922753;-66
2021/08/03 05:13:44;;;;;;;14.05;9.43;;;;;;;;;;727488;192;918854;-65
2021/08/03 05:16:10;;;;;;;17.67;11.90;;;;;;;;;;727387;192;919022;-65
2021/08/03 05:18:36;;;;;;;17.67;11.73;;;;;;;;;;735894;190;919685;-67
2021/08/03 05:21:02;;;;;;;18.80;9.80;;;;;;;;;;727174;191;919316;-67
2021/08/03 05:23:27;;;;;;;16.47;9.37;;;;;;;;;;725602;192;920546;-64
2021/08/03 05:25:53;;;;;;;12.68;8.95;;;;;;;;;;730921;190;918090;-66
2021/08/03 05:28:19;;;;;;;15.93;10.70;;;;;;;;;;725417;192;919976;-66
2021/08/03 05:30:47;;;;;;;16.05;10.85;;;;;;;;;;724591;192;1025590;-66
2021/08/03 05:33:11;;;;;;;26.80;13.57;;;;;;;;;;731600;191;918312;-66
2021/08/03 05:35:37;;;;;;;19.27;11.90;;;;;;;;;;725757;191;919648;-67
2021/08/03 05:38:03;;;;;;;17.45;12.13;;;;;;;;;;727340;190;919744;-66
2021/08/03 05:40:28;;;;;;;20.10;11.30;;;;;;;;;;731194;192;919689;-66
2021/08/03 05:42:54;;;;;;;18.87;11.30;;;;;;;;;;726935;190;919592;-66
2021/08/03 05:45:22;;;;;;;28.20;12.60;;;;;;;;;;724172;193;942624;-65
2021/08/03 05:47:46;;;;;;;18.53;11.77;;;;;;;;;;725468;191;918847;-65
2021/08/03 05:50:12;;;;;;;27.13;16.23;;;;;;;;;;730703;192;918294;-66
2021/08/03 05:52:38;;;;;;;28.10;15.70;;;;;;;;;;724389;192;919324;-66
2021/08/03 05:55:04;;;;;;;24.50;18.27;;;;;;;;;;725519;190;922174;-65
2021/08/03 05:57:30;;;;;;;24.57;18.27;;;;;;;;;;730869;193;919605;-65
2021/08/03 05:59:55;;;;;;;21.92;14.48;;;;;;;;;;725157;193;919943;-65
2021/08/03 06:02:21;;;;;;;27.37;16.80;;;;;;;;;;727046;190;919004;-65
2021/08/03 06:04:47;;;;;;;23.40;15.53;;;;;;;;;;731206;192;919648;-66
2021/08/03 06:07:13;;;;;;;22.03;15.80;;;;;;;;;;726561;190;919016;-65
2021/08/03 06:09:39;;;;;;;19.90;15.20;;;;;;;;;;726190;192;919449;-65
2021/08/03 06:12:05;;;;;;;17.10;13.98;;;;;;;;;;724031;192;1020379;-65
2021/08/03 06:14:32;;;;;;;18.83;14.77;;;;;;;;;;727608;193;922978;-65
2021/08/03 06:16:57;;;;;;;17.93;13.70;;;;;;;;;;726640;191;919199;-65
2021/08/03 06:19:23;;;;;;;19.47;14.80;;;;;;;;;;724762;192;986266;-65
2021/08/03 06:21:49;;;;;;;15.13;12.37;;;;;;;;;;732294;190;919456;-65
2021/08/03 06:24:16;;;;;;;17.03;12.53;;;;;;;;;;729229;191;919064;-65
2021/08/03 06:26:43;;;;;;;12.30;10.53;;;;;;;;;;727868;191;917643;-65
2021/08/03 06:29:07;;;;;;;14.70;12.27;;;;;;;;;;732099;192;918852;-67
2021/08/03 06:31:33;;;;;;;12.50;10.33;;;;;;;;;;727030;192;922276;-67
2021/08/03 06:33:59;;;;;;;13.07;10.00;;;;;;;;;;725753;192;918725;-67
2021/08/03 06:36:25;;;;;;;10.30;9.25;;;;;;;;;;727500;191;920986;-65
2021/08/03 06:38:51;;;;;;;8.63;7.77;;;;;;;;;;725416;193;918023;-66
2021/08/03 06:41:23;;;;;;;9.73;6.70;;;;;;;;;;727575;192;921274;-67
2021/08/03 06:43:49;;;;;;;8.30;7.07;;;;;;;;;;724424;192;922788;-68
2021/08/03 06:46:14;;;;;;;9.40;6.57;;;;;;;;;;730432;192;917039;-67
2021/08/03 06:48:50;;;;;;;12.37;6.83;;;;;;;;;;726138;192;913730;-67
2021/08/03 06:51:16;;;;;;;8.43;7.07;;;;;;;;;;725680;190;920239;-66
2021/08/03 06:53:42;;;;;;;7.33;5.53;;;;;;;;;;725893;191;915620;-68
2021/08/03 06:56:09;;;;;;;7.00;6.30;;;;;;;;;;730836;192;913770;-68
2021/08/03 06:58:38;;;;;;;9.40;6.30;;;;;;;;;;727224;192;1018197;-68
2021/08/03 07:01:02;;;;;;;10.53;6.93;;;;;;;;;;725967;191;919271;-67
2021/08/03 07:03:28;;;;;;;8.38;6.55;;;;;;;;;;727241;192;943738;-66
2021/08/03 07:05:54;;;;;;;6.83;4.87;;;;;;;;;;734626;188;918534;-67
2021/08/03 07:08:20;;;;;;;6.70;5.30;;;;;;;;;;725488;192;939374;-67
2021/08/03 07:10:46;;;;;;;8.33;5.93;;;;;;;;;;725862;191;919771;-66
2021/08/03 07:13:12;;;;;;;7.40;5.77;;;;;;;;;;731087;191;916359;-66
2021/08/03 07:15:37;;;;;;;7.90;5.50;;;;;;;;;;725494;192;919582;-67
2021/08/03 07:18:03;;;;;;;6.33;5.10;;;;;;;;;;726583;192;919268;-67
2021/08/03 07:20:29;;;;;;;6.83;5.93;;;;;;;;;;730142;193;918192;-67
2021/08/03 07:22:55;;;;;;;12.23;5.40;;;;;;;;;;725688;191;919644;-66
2021/08/03 07:25:21;;;;;;;6.13;5.53;;;;;;;;;;725529;193;919170;-67
2021/08/03 07:27:47;;;;;;;8.70;6.70;;;;;;;;;;730737;191;919280;-67
2021/08/03 07:30:12;;;;;;;6.03;5.40;;;;;;;;;;729023;191;920603;-67
2021/08/03 07:32:38;;;;;;;7.80;6.00;;;;;;;;;;728894;191;919656;-67
2021/08/03 07:35:05;;;;;;;7.03;5.60;;;;;;;;;;727319;190;918671;-67
2021/08/03 07:37:31;;;;;;;6.60;5.30;;;;;;;;;;732302;192;895202;-66
2021/08/03 07:39:56;;;;;;;6.70;6.00;;;;;;;;;;725681;192;919187;-67
2021/08/03 07:42:22;;;;;;;8.10;4.93;;;;;;;;;;726882;191;916218;-66
2021/08/03 07:44:48;;;;;;;5.70;4.87;;;;;;;;;;733203;192;916390;-66
2021/08/03 07:47:14;;;;;;;8.33;4.80;;;;;;;;;;726491;192;916270;-66
2021/08/03 07:49:40;;;;;;;6.75;5.10;;;;;;;;;;726401;192;916581;-66
2021/08/03 07:52:07;;;;;;;5.87;4.87;;;;;;;;;;731850;192;919048;-66
2021/08/03 07:54:32;;;;;;;8.50;5.30;;;;;;;;;;726272;191;913917;-65
2021/08/03 07:56:58;;;;;;;5.40;4.70;;;;;;;;;;726736;191;919200;-65
2021/08/03 07:59:24;;;;;;;9.30;5.20;;;;;;;;;;724789;190;919376;-66
2021/08/03 08:01:50;;;;;;;7.93;4.80;;;;;;;;;;735345;190;919513;-67
2021/08/03 08:04:16;;;;;;;7.30;4.63;;;;;;;;;;724050;191;916662;-66
2021/08/03 08:06:42;;;;;;;9.75;4.20;;;;;;;;;;725715;192;921265;-67
2021/08/03 08:09:07;;;;;;;4.73;3.70;;;;;;;;;;730362;191;920888;-66
2021/08/03 08:11:33;;;;;;;4.87;3.77;;;;;;;;;;723416;193;1084291;-66
2021/08/03 08:13:59;;;;;;;5.13;3.67;;;;;;;;;;726863;191;917302;-66
2021/08/03 08:16:25;;;;;;;3.93;2.80;;;;;;;;;;731610;190;915535;-67
2021/08/03 08:18:51;;;;;;;5.00;3.10;;;;;;;;;;727227;190;915904;-66
2021/08/03 08:21:17;;;;;;;4.70;3.00;;;;;;;;;;725949;191;916961;-66
2021/08/03 08:23:43;;;;;;;4.50;3.57;;;;;;;;;;731229;191;921812;-65
2021/08/03 08:26:09;;;;;;;3.67;3.27;;;;;;;;;;736709;188;915582;-66
2021/08/03 08:28:35;;;;;;;4.47;2.80;;;;;;;;;;730485;191;919832;-66
2021/08/03 08:31:01;;;;;;;4.50;3.50;;;;;;;;;;725768;193;1021294;-64
2021/08/03 08:33:27;;;;;;;3.57;2.80;;;;;;;;;;729915;191;913019;-66
2021/08/03 08:35:52;;;;;;;3.23;2.90;;;;;;;;;;722510;193;920015;-66
2021/08/03 08:38:18;;;;;;;3.35;2.53;;;;;;;;;;727129;190;919209;-66
2021/08/03 08:40:44;;;;;;;3.43;2.80;;;;;;;;;;732339;192;920149;-67
2021/08/03 08:43:10;;;;;;;4.13;3.17;;;;;;;;;;730395;190;919709;-66
2021/08/03 08:45:36;;;;;;;7.57;3.70;;;;;;;;;;728798;191;918204;-67
2021/08/03 08:48:03;;;;;;;4.03;2.60;;;;;;;;;;729914;191;1226614;-68
2021/08/03 08:50:29;;;;;;;4.53;2.70;;;;;;;;;;726669;192;919543;-65
2021/08/03 08:52:56;;;;;;;3.60;2.83;;;;;;;;;;728011;192;920324;-66
2021/08/03 08:55:21;;;;;;;3.70;2.73;;;;;;;;;;727204;192;919172;-67
2021/08/03 08:57:48;;;;;;;4.03;2.97;;;;;;;;;;731976;192;919518;-66
2021/08/03 09:00:12;;;;;;;5.40;3.10;;;;;;;;;;725313;191;919274;-65
2021/08/03 09:02:39;;;;;;;4.07;3.27;;;;;;;;;;725605;192;922273;-66
2021/08/03 09:05:05;;;;;;;5.17;2.70;;;;;;;;;;729192;192;919253;-66
2021/08/03 09:07:31;;;;;;;3.30;2.93;;;;;;;;;;725279;192;919512;-65
2021/08/03 09:09:57;;;;;;;4.13;2.70;;;;;;;;;;724658;192;919589;-66
2021/08/03 09:12:28;;;;;;;5.23;2.90;;;;;;;;;;732530;192;918752;-66
2021/08/03 09:14:54;;;;;;;4.17;3.47;;;;;;;;;;731966;192;918441;-65
2021/08/03 09:17:25;;;;;;;7.63;4.03;;;;;;;;;;725247;192;919008;-65
2021/08/03 09:19:51;;;;;;;4.70;3.70;;;;;;;;;;727102;191;918936;-65
2021/08/03 09:22:16;;;;;;;4.80;3.77;;;;;;;;;;731211;192;919851;-65
2021/08/03 09:24:42;;;;;;;5.50;4.20;;;;;;;;;;724548;192;924790;-66
2021/08/03 09:27:08;;;;;;;5.33;3.20;;;;;;;;;;724990;191;919444;-65
2021/08/03 09:29:41;;;;;;;6.10;3.30;;;;;;;;;;725682;192;918811;-64
2021/08/03 09:32:07;;;;;;;5.77;4.03;;;;;;;;;;737110;187;919265;-65
2021/08/03 09:34:32;;;;;;;7.30;5.33;;;;;;;;;;724915;190;1016270;-63
2021/08/03 09:36:58;;;;;;;6.70;3.27;;;;;;;;;;725712;191;1032702;-65
2021/08/03 09:39:30;;;;;;;8.10;3.17;;;;;;;;;;729655;193;919066;-66
2021/08/03 09:41:56;;;;;;;3.60;2.67;;;;;;;;;;731289;190;919419;-66
2021/08/03 09:44:22;;;;;;;4.50;2.60;;;;;;;;;;727086;192;919513;-64
2021/08/03 09:46:47;;;;;;;16.90;3.57;;;;;;;;;;724196;193;919690;-64
2021/08/03 09:49:13;;;;;;;5.17;3.57;;;;;;;;;;728886;192;1025261;-63
2021/08/03 09:51:39;;;;;;;5.00;2.60;;;;;;;;;;726035;190;919481;-65
2021/08/03 09:54:06;;;;;;;4.62;2.47;;;;;;;;;;727365;191;1022464;-65
2021/08/03 09:56:35;;;;;;;4.20;3.07;;;;;;;;;;732268;191;919286;-65
2021/08/03 09:59:00;;;;;;;3.67;3.03;;;;;;;;;;727550;191;915980;-65
2021/08/03 10:01:26;;;;;;;4.27;3.23;;;;;;;;;;727124;192;919618;-65
2021/08/03 10:03:52;;;;;;;5.80;3.37;;;;;;;;;;727712;190;920673;-66
2021/08/03 10:06:18;;;;;;;4.50;2.93;;;;;;;;;;730348;191;919070;-65
2021/08/03 10:08:44;;;;;;;3.50;2.47;;;;;;;;;;725243;191;919602;-65
2021/08/03 10:11:10;;;;;;;3.87;3.05;;;;;;;;;;726168;191;921883;-64
2021/08/03 10:13:36;;;;;;;5.10;2.90;;;;;;;;;;730189;191;919799;-63
2021/08/03 10:16:02;;;;;;;4.97;2.87;;;;;;;;;;725658;190;919406;-64
2021/08/03 10:18:27;;;;;;;2.80;2.17;;;;;;;;;;725906;191;917458;-65
2021/08/03 10:20:53;;;;;;;3.20;2.37;;;;;;;;;;730541;192;918459;-65
2021/08/03 10:23:19;;;;;;;6.10;2.47;;;;;;;;;;726374;191;920213;-66
2021/08/03 10:25:45;;;;;;;5.10;2.70;;;;;;;;;;727549;191;919238;-65
2021/08/03 10:28:16;;;;;;;4.70;2.53;;;;;;;;;;725821;192;919567;-65
2021/08/03 10:30:42;;;;;;;6.43;2.83;;;;;;;;;;726368;193;1160950;-66
2021/08/03 10:33:11;;;;;;;3.20;2.20;;;;;;;;;;727178;192;929429;-65
2021/08/03 10:35:37;;;;;;;3.07;2.10;;;;;;;;;;724865;191;919152;-66
2021/08/03 10:38:04;;;;;;;3.87;2.20;;;;;;;;;;731584;192;919436;-63
2021/08/03 10:40:36;;;;;;;5.00;2.63;;;;;;;;;;721312;189;966579;-64
2021/08/03 10:43:07;;;;;;;4.00;2.60;;;;;;;;;;726086;192;920216;-65
2021/08/03 10:45:33;;;;;;;2.90;1.90;;;;;;;;;;726133;192;923522;-65
2021/08/03 10:47:59;;;;;;;3.00;2.00;;;;;;;;;;732961;192;918988;-64
2021/08/03 10:50:27;;;;;;;5.57;2.37;;;;;;;;;;726001;192;919650;-66
2021/08/03 10:52:52;;;;;;;3.60;2.35;;;;;;;;;;725412;192;919367;-66
2021/08/03 10:55:24;;;;;;;3.03;2.10;;;;;;;;;;724998;193;919283;-65
2021/08/03 10:57:55;;;;;;;3.03;2.43;;;;;;;;;;731061;191;927014;-64
2021/08/03 11:00:22;;;;;;;2.53;1.60;;;;;;;;;;732885;193;920590;-65
2021/08/03 11:02:47;;;;;;;5.30;2.50;;;;;;;;;;726502;191;918948;-66
2021/08/03 11:05:19;;;;;;;5.73;2.17;;;;;;;;;;728903;191;919592;-65
2021/08/03 11:07:45;;;;;;;3.47;2.30;;;;;;;;;;735697;190;914343;-65
2021/08/03 11:10:30;;;;;;;4.47;2.07;;;;;;;;;;726154;191;919498;-63
2021/08/03 11:12:56;;;;;;;2.57;1.80;;;;;;;;;;726931;191;919677;-63
2021/08/03 11:15:36;;;;;;;4.70;2.30;;;;;;;;;;726435;190;937009;-65
2021/08/03 11:18:06;;;;;;;7.23;2.23;;;;;;;;;;727778;192;919474;-64
2021/08/03 11:20:49;;;;;;;3.07;1.80;;;;;;;;;;725868;192;919699;-65
2021/08/03 11:23:15;;;;;;;3.53;2.43;;;;;;;;;;720377;193;931170;-65
2021/08/03 11:25:41;;;;;;;4.37;2.40;;;;;;;;;;731021;191;919037;-64
2021/08/03 11:28:08;;;;;;;7.68;2.85;;;;;;;;;;726302;192;919995;-65
2021/08/03 11:30:33;;;;;;;4.50;2.50;;;;;;;;;;726958;191;919287;-64
2021/08/03 11:32:59;;;;;;;4.80;2.70;;;;;;;;;;730087;192;919294;-63
2021/08/03 11:35:26;;;;;;;4.50;2.60;;;;;;;;;;726879;191;920787;-65
2021/08/03 11:37:52;;;;;;;4.72;2.72;;;;;;;;;;727792;191;919884;-65
2021/08/03 11:40:18;;;;;;;3.20;2.77;;;;;;;;;;731660;193;922577;-63
2021/08/03 11:42:43;;;;;;;5.87;3.20;;;;;;;;;;726582;192;919211;-64
2021/08/03 11:45:11;;;;;;;3.47;2.50;;;;;;;;;;726146;191;920595;-65
2021/08/03 11:47:41;;;;;;;3.30;2.73;;;;;;;;;;726733;191;919082;-63
2021/08/03 11:50:07;;;;;;;3.27;2.80;;;;;;;;;;731822;191;916079;-65
2021/08/03 11:52:33;;;;;;;3.40;2.67;;;;;;;;;;725767;192;913025;-64
2021/08/03 11:54:59;;;;;;;3.40;2.20;;;;;;;;;;728643;191;923933;-65
2021/08/03 11:57:26;;;;;;;3.17;2.57;;;;;;;;;;730341;190;916793;-65
2021/08/03 11:59:59;;;;;;;3.37;2.70;;;;;;;;;;730732;192;916241;-65
2021/08/03 12:02:25;;;;;;;5.37;3.00;;;;;;;;;;726109;192;919663;-65
2021/08/03 12:05:08;;;;;;;3.77;2.40;;;;;;;;;;726596;191;915888;-64
2021/08/03 12:07:34;;;;;;;3.87;2.85;;;;;;;;;;721053;190;925554;-63
2021/08/03 12:10:00;;;;;;;6.10;2.37;;;;;;;;;;728315;193;1123004;-66
2021/08/03 12:12:26;;;;;;;3.83;2.43;;;;;;;;;;727049;191;919290;-65
2021/08/03 12:15:02;;;;;;;3.33;2.53;;;;;;;;;;727207;191;919693;-65
2021/08/03 12:17:28;;;;;;;2.60;1.93;;;;;;;;;;727889;191;919162;-65
2021/08/03 12:20:01;;;;;;;3.13;2.47;;;;;;;;;;732066;192;930711;-65
2021/08/03 12:22:24;;;;;;;3.60;2.60;;;;;;;;;;726697;192;937066;-68
2021/08/03 12:24:53;;;;;;;5.87;2.90;;;;;;;;;;726323;192;919339;-65
2021/08/03 12:27:19;;;;;;;4.27;2.70;;;;;;;;;;725581;192;919058;-67
2021/08/03 12:29:45;;;;;;;4.80;2.27;;;;;;;;;;732660;192;921770;-65
2021/08/03 12:32:10;;;;;;;4.03;2.50;;;;;;;;;;726892;191;920212;-66
2021/08/03 12:34:37;;;;;;;2.77;1.93;;;;;;;;;;729962;192;919600;-65
2021/08/03 12:37:03;;;;;;;4.30;2.50;;;;;;;;;;733033;190;918869;-65
2021/08/03 12:39:37;;;;;;;4.30;2.40;;;;;;;;;;728846;192;865114;-63
2021/08/03 12:42:05;;;;;;;2.60;2.10;;;;;;;;;;724397;191;919247;-65
2021/08/03 12:44:30;;;;;;;7.17;2.40;;;;;;;;;;727140;192;920119;-66
2021/08/03 12:46:56;;;;;;;3.70;2.60;;;;;;;;;;731349;192;919569;-65
2021/08/03 12:49:28;;;;;;;6.20;2.10;;;;;;;;;;728844;191;918732;-66
2021/08/03 12:51:54;;;;;;;2.63;1.93;;;;;;;;;;726371;191;918460;-66
2021/08/03 12:54:20;;;;;;;4.53;2.00;;;;;;;;;;725538;191;919461;-65
2021/08/03 12:56:52;;;;;;;5.07;2.27;;;;;;;;;;730660;191;905733;-64
2021/08/03 12:59:24;;;;;;;3.70;2.23;;;;;;;;;;726324;191;1010304;-65
2021/08/03 13:01:50;;;;;;;2.77;1.73;;;;;;;;;;728448;191;918647;-65
2021/08/03 13:04:16;;;;;;;4.50;2.70;;;;;;;;;;726660;191;923810;-65
2021/08/03 13:06:47;;;;;;;3.07;1.80;;;;;;;;;;730625;191;921766;-65
2021/08/03 13:09:13;;;;;;;3.27;2.07;;;;;;;;;;723891;192;919198;-65
2021/08/03 13:11:39;;;;;;;7.10;2.43;;;;;;;;;;724808;191;919568;-65
2021/08/03 13:14:05;;;;;;;3.63;2.37;;;;;;;;;;729873;192;927191;-65
2021/08/03 13:16:31;;;;;;;5.63;2.00;;;;;;;;;;725869;192;918911;-66
2021/08/03 13:18:56;;;;;;;5.67;2.53;;;;;;;;;;726109;191;919514;-64
2021/08/03 13:21:22;;;;;;;7.20;2.40;;;;;;;;;;725423;191;919461;-65
2021/08/03 13:23:48;;;;;;;3.47;2.03;;;;;;;;;;731251;191;919238;-64
2021/08/03 13:26:14;;;;;;;2.93;2.07;;;;;;;;;;726379;190;920071;-65
2021/08/03 13:28:40;;;;;;;5.57;1.93;;;;;;;;;;727458;191;919132;-65
2021/08/03 13:31:06;;;;;;;4.07;2.13;;;;;;;;;;732309;191;918787;-65
2021/08/03 13:33:31;;;;;;;4.03;2.03;;;;;;;;;;729435;190;918662;-65
2021/08/03 13:35:57;;;;;;;2.90;2.00;;;;;;;;;;727730;191;919306;-65
2021/08/03 13:38:23;;;;;;;2.83;1.80;;;;;;;;;;733061;191;919282;-66
2021/08/03 13:40:49;;;;;;;3.83;2.33;;;;;;;;;;725930;192;919857;-64
2021/08/03 13:43:15;;;;;;;4.80;2.42;;;;;;;;;;725629;192;920281;-65
2021/08/03 13:45:41;;;;;;;3.70;1.83;;;;;;;;;;727119;192;918922;-64
2021/08/03 13:48:07;;;;;;;3.63;2.50;;;;;;;;;;728768;191;919479;-65
2021/08/03 13:50:32;;;;;;;3.10;2.07;;;;;;;;;;726755;192;920644;-65
2021/08/03 13:52:58;;;;;;;2.87;1.63;;;;;;;;;;727108;191;917755;-65
2021/08/03 13:55:24;;;;;;;5.00;2.47;;;;;;;;;;731398;191;920185;-65
2021/08/03 13:57:50;;;;;;;8.50;2.20;;;;;;;;;;725417;192;919616;-65
2021/08/03 14:00:16;;;;;;;4.83;2.10;;;;;;;;;;725918;191;1003095;-65
2021/08/03 14:02:42;;;;;;;2.40;1.73;;;;;;;;;;731654;192;915949;-65
2021/08/03 14:05:07;;;;;;;3.63;1.73;;;;;;;;;;726497;191;919142;-65
2021/08/03 14:07:33;;;;;;;2.60;1.80;;;;;;;;;;725888;191;921099;-65
2021/08/03 14:09:59;;;;;;;2.60;1.70;;;;;;;;;;730219;193;922367;-65
2021/08/03 14:12:25;;;;;;;4.00;2.00;;;;;;;;;;728744;191;919380;-65
2021/08/03 14:14:51;;;;;;;3.43;1.97;;;;;;;;;;725781;190;918065;-65
2021/08/03 14:17:17;;;;;;;3.10;1.80;;;;;;;;;;726694;192;924529;-64
2021/08/03 14:19:43;;;;;;;4.27;2.07;;;;;;;;;;729525;191;918975;-66